createdAt,value
2019-01-09T00:00:01.238Z,16.00
2019-01-09T00:01:01.054Z,16.00
2019-01-09T00:02:01.051Z,16.00
2019-01-09T00:03:01.035Z,16.00
2019-01-09T00:04:01.024Z,16.00
2019-01-09T00:05:01.009Z,16.00
2019-01-09T00:06:01.042Z,16.00
2019-01-09T00:07:00.996Z,16.00
2019-01-09T00:08:00.984Z,16.00
2019-01-09T00:09:00.975Z,16.00
2019-01-09T00:10:00.961Z,16.00
2019-01-09T00:11:00.951Z,16.00
2019-01-09T00:12:00.978Z,16.00
2019-01-09T00:13:00.925Z,16.00
2019-01-09T00:14:00.918Z,16.00
2019-01-09T00:15:13.109Z,16.00
2019-01-09T00:16:00.894Z,16.00
2019-01-09T00:17:00.882Z,16.00
2019-01-09T00:18:00.890Z,16.00
2019-01-09T00:19:00.870Z,16.00
2019-01-09T00:20:00.858Z,16.00
2019-01-09T00:21:00.845Z,16.00
2019-01-09T00:22:00.831Z,16.00
2019-01-09T00:23:00.829Z,16.00
2019-01-09T00:24:00.869Z,16.00
2019-01-09T00:25:00.803Z,16.00
2019-01-09T00:26:00.792Z,16.00
2019-01-09T00:27:00.779Z,16.00
2019-01-09T00:28:00.777Z,16.00
2019-01-09T00:29:00.763Z,16.00
2019-01-09T00:30:00.787Z,16.00
2019-01-09T00:31:00.741Z,16.00
2019-01-09T00:32:01.438Z,20.00
2019-01-09T00:33:00.723Z,20.00
2019-01-09T00:34:00.711Z,16.00
2019-01-09T00:35:00.691Z,16.00
2019-01-09T00:36:00.734Z,16.00
2019-01-09T00:37:00.676Z,16.00
2019-01-09T00:38:00.697Z,64.00
2019-01-09T00:39:00.674Z,24.00
2019-01-09T00:40:00.657Z,24.00
2019-01-09T00:41:00.633Z,0.00
2019-01-09T00:42:00.770Z,12.00
2019-01-09T00:43:00.612Z,16.00
2019-01-09T00:44:00.600Z,16.00
2019-01-09T00:45:00.588Z,16.00
2019-01-09T00:46:11.131Z,16.00
2019-01-09T00:47:00.593Z,16.00
2019-01-09T00:48:00.587Z,12.00
2019-01-09T00:49:00.546Z,12.00
2019-01-09T00:50:00.549Z,16.00
2019-01-09T00:51:00.623Z,16.00
2019-01-09T00:52:00.533Z,16.00
2019-01-09T00:53:00.508Z,16.00
2019-01-09T00:54:00.998Z,16.00
2019-01-09T00:55:00.479Z,16.00
2019-01-09T00:56:00.500Z,16.00
2019-01-09T00:57:00.461Z,16.00
2019-01-09T00:58:00.450Z,16.00
2019-01-09T00:59:00.449Z,16.00
2019-01-09T01:00:00.478Z,16.00
2019-01-09T01:01:00.418Z,16.00
2019-01-09T01:02:00.409Z,32.00
2019-01-09T01:03:00.400Z,16.00
2019-01-09T01:04:00.395Z,16.00
2019-01-09T01:05:00.389Z,16.00
2019-01-09T01:06:00.403Z,12.00
2019-01-09T01:07:00.361Z,16.00
2019-01-09T01:08:00.432Z,16.00
2019-01-09T01:09:00.514Z,16.00
2019-01-09T01:10:00.323Z,16.00
2019-01-09T01:11:00.315Z,16.00
2019-01-09T01:12:00.343Z,16.00
2019-01-09T01:13:00.294Z,16.00
2019-01-09T01:14:00.281Z,16.00
2019-01-09T01:15:00.273Z,16.00
2019-01-09T01:16:00.265Z,16.00
2019-01-09T01:17:11.019Z,16.00
2019-01-09T01:18:00.244Z,16.00
2019-01-09T01:19:00.233Z,16.00
2019-01-09T01:20:00.224Z,16.00
2019-01-09T01:21:00.208Z,16.00
2019-01-09T01:22:00.195Z,16.00
2019-01-09T01:23:00.443Z,16.00
2019-01-09T01:24:00.177Z,16.00
2019-01-09T01:25:00.178Z,16.00
2019-01-09T01:26:00.153Z,16.00
2019-01-09T01:27:00.145Z,16.00
2019-01-09T01:28:00.141Z,16.00
2019-01-09T01:29:07.544Z,16.00
2019-01-09T01:30:00.182Z,16.00
2019-01-09T01:31:00.101Z,16.00
2019-01-09T01:32:00.095Z,16.00
2019-01-09T01:33:00.129Z,16.00
2019-01-09T01:34:00.075Z,16.00
2019-01-09T01:35:00.171Z,16.00
2019-01-09T01:36:00.047Z,16.00
2019-01-09T01:37:00.042Z,16.00
2019-01-09T01:38:00.029Z,16.00
2019-01-09T01:39:00.022Z,16.00
2019-01-09T01:40:00.003Z,16.00
2019-01-09T01:41:00.166Z,16.00
2019-01-09T01:41:59.992Z,16.00
2019-01-09T01:42:59.980Z,16.00
2019-01-09T01:43:59.965Z,16.00
2019-01-09T01:44:59.959Z,16.00
2019-01-09T01:45:59.941Z,16.00
2019-01-09T01:47:00.028Z,16.00
2019-01-09T01:47:59.921Z,16.00
2019-01-09T01:48:59.922Z,16.00
2019-01-09T01:49:59.903Z,16.00
2019-01-09T01:50:59.891Z,16.00
2019-01-09T01:51:59.880Z,16.00
2019-01-09T01:52:59.910Z,16.00
2019-01-09T01:53:59.855Z,16.00
2019-01-09T01:54:59.857Z,16.00
2019-01-09T01:55:59.837Z,16.00
2019-01-09T01:56:59.830Z,16.00
2019-01-09T01:57:59.821Z,16.00
2019-01-09T01:58:59.911Z,16.00
2019-01-09T02:00:09.739Z,16.00
2019-01-09T02:00:59.788Z,16.00
2019-01-09T02:01:59.773Z,16.00
2019-01-09T02:02:59.766Z,16.00
2019-01-09T02:03:59.756Z,16.00
2019-01-09T02:04:59.783Z,16.00
2019-01-09T02:06:03.999Z,16.00
2019-01-09T02:06:59.721Z,16.00
2019-01-09T02:07:59.719Z,16.00
2019-01-09T02:08:59.699Z,16.00
2019-01-09T02:09:59.693Z,16.00
2019-01-09T02:10:59.719Z,16.00
2019-01-09T02:11:59.665Z,16.00
2019-01-09T02:12:59.659Z,16.00
2019-01-09T02:13:59.649Z,16.00
2019-01-09T02:14:59.699Z,16.00
2019-01-09T02:15:59.629Z,16.00
2019-01-09T02:16:59.653Z,16.00
2019-01-09T02:17:59.604Z,16.00
2019-01-09T02:18:59.601Z,16.00
2019-01-09T02:19:59.584Z,16.00
2019-01-09T02:20:59.574Z,16.00
2019-01-09T02:21:59.559Z,16.00
2019-01-09T02:22:59.590Z,16.00
2019-01-09T02:23:59.543Z,16.00
2019-01-09T02:24:59.541Z,16.00
2019-01-09T02:25:59.520Z,12.00
2019-01-09T02:26:59.513Z,16.00
2019-01-09T02:27:59.504Z,16.00
2019-01-09T02:28:59.533Z,16.00
2019-01-09T02:29:59.477Z,16.00
2019-01-09T02:31:09.464Z,16.00
2019-01-09T02:31:59.462Z,16.00
2019-01-09T02:32:59.454Z,16.00
2019-01-09T02:33:59.438Z,16.00
2019-01-09T02:34:59.474Z,16.00
2019-01-09T02:35:59.413Z,16.00
2019-01-09T02:36:59.407Z,16.00
2019-01-09T02:37:59.394Z,16.00
2019-01-09T02:38:59.384Z,16.00
2019-01-09T02:39:59.377Z,16.00
2019-01-09T02:40:59.402Z,12.00
2019-01-09T02:41:59.353Z,12.00
2019-01-09T02:42:59.346Z,16.00
2019-01-09T02:43:59.327Z,16.00
2019-01-09T02:44:59.326Z,16.00
2019-01-09T02:45:59.310Z,16.00
2019-01-09T02:46:59.334Z,16.00
2019-01-09T02:47:59.287Z,16.00
2019-01-09T02:48:59.280Z,16.00
2019-01-09T02:49:59.263Z,12.00
2019-01-09T02:50:59.259Z,12.00
2019-01-09T02:51:59.242Z,12.00
2019-01-09T02:52:59.408Z,12.00
2019-01-09T02:53:59.247Z,12.00
2019-01-09T02:54:59.215Z,12.00
2019-01-09T02:55:59.203Z,12.00
2019-01-09T02:56:59.196Z,16.00
2019-01-09T02:57:59.180Z,12.00
2019-01-09T02:58:59.205Z,12.00
2019-01-09T02:59:59.178Z,16.00
2019-01-09T03:00:59.147Z,16.00
2019-01-09T03:02:09.624Z,16.00
2019-01-09T03:02:59.126Z,16.00
2019-01-09T03:03:59.118Z,16.00
2019-01-09T03:04:59.146Z,16.00
2019-01-09T03:05:59.099Z,16.00
2019-01-09T03:06:59.094Z,16.00
2019-01-09T03:07:59.074Z,16.00
2019-01-09T03:08:59.069Z,16.00
2019-01-09T03:09:59.056Z,16.00
2019-01-09T03:10:59.084Z,16.00
2019-01-09T03:11:59.036Z,16.00
2019-01-09T03:12:59.027Z,16.00
2019-01-09T03:13:59.007Z,16.00
2019-01-09T03:14:58.999Z,16.00
2019-01-09T03:15:58.990Z,16.00
2019-01-09T03:16:59.028Z,16.00
2019-01-09T03:17:58.970Z,16.00
2019-01-09T03:18:58.964Z,16.00
2019-01-09T03:19:58.982Z,16.00
2019-01-09T03:20:59.048Z,16.00
2019-01-09T03:21:58.928Z,16.00
2019-01-09T03:22:59.075Z,16.00
2019-01-09T03:23:58.906Z,16.00
2019-01-09T03:24:58.900Z,16.00
2019-01-09T03:25:58.885Z,16.00
2019-01-09T03:26:58.877Z,16.00
2019-01-09T03:27:58.860Z,16.00
2019-01-09T03:28:59.023Z,16.00
2019-01-09T03:29:58.843Z,16.00
2019-01-09T03:30:58.836Z,16.00
2019-01-09T03:31:58.823Z,16.00
2019-01-09T03:33:09.145Z,16.00
2019-01-09T03:33:58.804Z,16.00
2019-01-09T03:34:58.828Z,16.00
2019-01-09T03:35:58.782Z,16.00
2019-01-09T03:36:58.763Z,16.00
2019-01-09T03:37:58.758Z,16.00
2019-01-09T03:38:58.755Z,16.00
2019-01-09T03:39:58.734Z,16.00
2019-01-09T03:40:58.897Z,16.00
2019-01-09T03:41:58.716Z,16.00
2019-01-09T03:42:58.703Z,16.00
2019-01-09T03:43:58.695Z,16.00
2019-01-09T03:44:58.767Z,16.00
2019-01-09T03:45:58.672Z,16.00
2019-01-09T03:46:58.836Z,16.00
2019-01-09T03:47:58.650Z,16.00
2019-01-09T03:48:58.651Z,12.00
2019-01-09T03:49:58.633Z,12.00
2019-01-09T03:50:58.622Z,12.00
2019-01-09T03:51:58.611Z,12.00
2019-01-09T03:52:58.630Z,12.00
2019-01-09T03:53:58.587Z,12.00
2019-01-09T03:54:58.583Z,16.00
2019-01-09T03:55:58.564Z,12.00
2019-01-09T03:56:58.554Z,16.00
2019-01-09T03:57:58.548Z,12.00
2019-01-09T03:58:58.566Z,16.00
2019-01-09T03:59:58.525Z,12.00
2019-01-09T04:00:58.514Z,12.00
2019-01-09T04:01:58.502Z,16.00
2019-01-09T04:02:58.497Z,12.00
2019-01-09T04:04:09.081Z,12.00
2019-01-09T04:04:58.467Z,16.00
2019-01-09T04:05:58.457Z,16.00
2019-01-09T04:06:58.451Z,16.00
2019-01-09T04:07:58.438Z,16.00
2019-01-09T04:08:58.434Z,12.00
2019-01-09T04:09:58.453Z,16.00
2019-01-09T04:10:58.413Z,16.00
2019-01-09T04:11:58.402Z,12.00
2019-01-09T04:12:58.386Z,16.00
2019-01-09T04:13:58.373Z,16.00
2019-01-09T04:14:58.370Z,16.00
2019-01-09T04:15:58.371Z,16.00
2019-01-09T04:16:58.352Z,16.00
2019-01-09T04:17:58.331Z,16.00
2019-01-09T04:18:58.321Z,12.00
2019-01-09T04:19:58.316Z,16.00
2019-01-09T04:20:58.302Z,16.00
2019-01-09T04:21:58.473Z,16.00
2019-01-09T04:22:58.287Z,12.00
2019-01-09T04:23:58.280Z,12.00
2019-01-09T04:24:58.256Z,12.00
2019-01-09T04:25:58.246Z,16.00
2019-01-09T04:26:58.239Z,16.00
2019-01-09T04:27:58.260Z,16.00
2019-01-09T04:28:58.215Z,16.00
2019-01-09T04:29:58.217Z,16.00
2019-01-09T04:30:58.194Z,12.00
2019-01-09T04:31:58.190Z,16.00
2019-01-09T04:32:58.171Z,16.00
2019-01-09T04:33:58.207Z,16.00
2019-01-09T04:35:08.536Z,12.00
2019-01-09T04:35:58.148Z,12.00
2019-01-09T04:36:58.130Z,16.00
2019-01-09T04:37:58.125Z,16.00
2019-01-09T04:38:58.107Z,12.00
2019-01-09T04:39:58.138Z,12.00
2019-01-09T04:40:58.090Z,16.00
2019-01-09T04:41:58.083Z,16.00
2019-01-09T04:42:58.071Z,16.00
2019-01-09T04:43:58.072Z,16.00
2019-01-09T04:44:58.045Z,16.00
2019-01-09T04:45:58.073Z,12.00
2019-01-09T04:46:58.831Z,16.00
2019-01-09T04:47:58.019Z,16.00
2019-01-09T04:48:58.017Z,16.00
2019-01-09T04:49:57.998Z,12.00
2019-01-09T04:50:57.982Z,16.00
2019-01-09T04:51:58.007Z,12.00
2019-01-09T04:52:57.969Z,16.00
2019-01-09T04:53:59.392Z,12.00
2019-01-09T04:54:57.944Z,12.00
2019-01-09T04:55:57.927Z,12.00
2019-01-09T04:56:57.917Z,16.00
2019-01-09T04:57:58.115Z,16.00
2019-01-09T04:58:57.897Z,12.00
2019-01-09T04:59:57.898Z,12.00
2019-01-09T05:00:57.879Z,16.00
2019-01-09T05:01:57.864Z,16.00
2019-01-09T05:02:57.857Z,16.00
2019-01-09T05:03:57.890Z,16.00
2019-01-09T05:04:57.835Z,16.00
2019-01-09T05:06:08.077Z,16.00
2019-01-09T05:07:00.601Z,16.00
2019-01-09T05:07:57.808Z,16.00
2019-01-09T05:08:57.795Z,16.00
2019-01-09T05:09:57.819Z,16.00
2019-01-09T05:10:57.775Z,16.00
2019-01-09T05:11:57.762Z,16.00
2019-01-09T05:12:57.757Z,16.00
2019-01-09T05:13:57.743Z,16.00
2019-01-09T05:14:57.733Z,16.00
2019-01-09T05:15:57.755Z,16.00
2019-01-09T05:16:57.707Z,16.00
2019-01-09T05:17:58.434Z,16.00
2019-01-09T05:18:57.684Z,16.00
2019-01-09T05:19:57.683Z,16.00
2019-01-09T05:20:57.674Z,16.00
2019-01-09T05:21:57.924Z,16.00
2019-01-09T05:22:57.649Z,16.00
2019-01-09T05:23:57.637Z,16.00
2019-01-09T05:24:57.627Z,12.00
2019-01-09T05:25:57.615Z,12.00
2019-01-09T05:26:57.606Z,16.00
2019-01-09T05:27:57.631Z,12.00
2019-01-09T05:28:57.585Z,12.00
2019-01-09T05:29:57.570Z,12.00
2019-01-09T05:30:57.571Z,12.00
2019-01-09T05:31:57.555Z,12.00
2019-01-09T05:32:57.540Z,12.00
2019-01-09T05:33:57.563Z,12.00
2019-01-09T05:34:57.527Z,16.00
2019-01-09T05:35:57.503Z,16.00
2019-01-09T05:37:09.641Z,16.00
2019-01-09T05:37:57.488Z,12.00
2019-01-09T05:38:57.474Z,12.00
2019-01-09T05:39:57.505Z,12.00
2019-01-09T05:40:57.457Z,12.00
2019-01-09T05:41:57.447Z,16.00
2019-01-09T05:42:57.436Z,16.00
2019-01-09T05:43:57.424Z,12.00
2019-01-09T05:44:57.831Z,16.00
2019-01-09T05:45:57.449Z,12.00
2019-01-09T05:46:57.391Z,12.00
2019-01-09T05:47:57.385Z,16.00
2019-01-09T05:48:57.378Z,12.00
2019-01-09T05:49:57.360Z,12.00
2019-01-09T05:50:57.400Z,12.00
2019-01-09T05:51:57.373Z,12.00
2019-01-09T05:52:57.329Z,12.00
2019-01-09T05:53:57.316Z,16.00
2019-01-09T05:54:57.303Z,16.00
2019-01-09T05:55:57.295Z,16.00
2019-01-09T05:56:57.292Z,12.00
2019-01-09T05:57:57.299Z,12.00
2019-01-09T05:58:57.271Z,16.00
2019-01-09T05:59:57.254Z,16.00
2019-01-09T06:00:57.242Z,16.00
2019-01-09T06:01:58.098Z,16.00
2019-01-09T06:02:57.219Z,16.00
2019-01-09T06:03:57.775Z,16.00
2019-01-09T06:04:57.251Z,16.00
2019-01-09T06:05:57.194Z,16.00
2019-01-09T06:06:57.178Z,16.00
2019-01-09T06:08:07.311Z,16.00
2019-01-09T06:08:57.156Z,16.00
2019-01-09T06:09:57.308Z,16.00
2019-01-09T06:10:57.138Z,16.00
2019-01-09T06:11:57.127Z,16.00
2019-01-09T06:12:57.130Z,20.00
2019-01-09T06:13:57.104Z,20.00
2019-01-09T06:14:57.100Z,20.00
2019-01-09T06:15:57.134Z,20.00
2019-01-09T06:16:57.070Z,20.00
2019-01-09T06:17:57.064Z,16.00
2019-01-09T06:18:57.065Z,16.00
2019-01-09T06:19:57.074Z,20.00
2019-01-09T06:20:57.033Z,16.00
2019-01-09T06:21:57.056Z,16.00
2019-01-09T06:22:57.008Z,20.00
2019-01-09T06:23:57.006Z,20.00
2019-01-09T06:24:57.000Z,20.00
2019-01-09T06:25:56.982Z,24.00
2019-01-09T06:26:56.975Z,20.00
2019-01-09T06:27:56.972Z,20.00
2019-01-09T06:28:56.943Z,24.00
2019-01-09T06:29:56.942Z,20.00
2019-01-09T06:30:56.923Z,24.00
2019-01-09T06:31:56.913Z,28.00
2019-01-09T06:32:56.909Z,24.00
2019-01-09T06:33:56.937Z,28.00
2019-01-09T06:34:56.880Z,28.00
2019-01-09T06:35:56.870Z,32.00
2019-01-09T06:36:56.862Z,32.00
2019-01-09T06:37:56.859Z,32.00
2019-01-09T06:39:09.180Z,32.00
2019-01-09T06:39:56.831Z,36.00
2019-01-09T06:40:56.815Z,36.00
2019-01-09T06:41:57.119Z,40.00
2019-01-09T06:42:56.793Z,44.00
2019-01-09T06:43:56.788Z,48.00
2019-01-09T06:44:56.803Z,48.00
2019-01-09T06:45:56.765Z,56.00
2019-01-09T06:46:56.757Z,56.00
2019-01-09T06:47:56.749Z,60.00
2019-01-09T06:48:56.733Z,64.00
2019-01-09T06:49:56.719Z,68.00
2019-01-09T06:50:56.760Z,76.00
2019-01-09T06:51:56.700Z,80.00
2019-01-09T06:52:56.692Z,84.00
2019-01-09T06:53:56.683Z,92.00
2019-01-09T06:54:56.688Z,100.00
2019-01-09T06:55:56.673Z,108.00
2019-01-09T06:56:56.683Z,112.00
2019-01-09T06:57:56.640Z,124.00
2019-01-09T06:58:56.628Z,132.00
2019-01-09T06:59:56.623Z,140.00
2019-01-09T07:00:56.604Z,148.00
2019-01-09T07:01:56.617Z,160.00
2019-01-09T07:02:56.635Z,172.00
2019-01-09T07:03:56.581Z,180.00
2019-01-09T07:04:56.576Z,188.00
2019-01-09T07:05:56.549Z,200.00
2019-01-09T07:06:56.543Z,208.00
2019-01-09T07:07:56.527Z,220.00
2019-01-09T07:08:56.607Z,232.00
2019-01-09T07:10:07.040Z,240.00
2019-01-09T07:10:56.495Z,256.00
2019-01-09T07:11:56.493Z,264.00
2019-01-09T07:12:56.476Z,276.00
2019-01-09T07:13:56.471Z,288.00
2019-01-09T07:14:56.493Z,300.00
2019-01-09T07:15:56.458Z,312.00
2019-01-09T07:16:56.431Z,324.00
2019-01-09T07:17:56.436Z,340.00
2019-01-09T07:18:56.419Z,352.00
2019-01-09T07:19:56.404Z,364.00
2019-01-09T07:20:56.427Z,376.00
2019-01-09T07:21:56.386Z,388.00
2019-01-09T07:22:56.392Z,400.00
2019-01-09T07:23:56.363Z,412.00
2019-01-09T07:24:56.353Z,428.00
2019-01-09T07:25:56.368Z,440.00
2019-01-09T07:26:56.500Z,452.00
2019-01-09T07:27:56.321Z,464.00
2019-01-09T07:28:56.311Z,480.00
2019-01-09T07:29:56.345Z,488.00
2019-01-09T07:30:56.288Z,500.00
2019-01-09T07:31:56.289Z,512.00
2019-01-09T07:32:56.302Z,512.00
2019-01-09T07:33:56.255Z,524.00
2019-01-09T07:34:56.247Z,536.00
2019-01-09T07:35:56.241Z,548.00
2019-01-09T07:36:56.228Z,560.00
2019-01-09T07:37:56.225Z,576.00
2019-01-09T07:38:56.256Z,592.00
2019-01-09T07:39:56.214Z,608.00
2019-01-09T07:41:06.762Z,624.00
2019-01-09T07:41:56.172Z,640.00
2019-01-09T07:42:56.181Z,648.00
2019-01-09T07:43:56.329Z,676.00
2019-01-09T07:44:56.396Z,696.00
2019-01-09T07:45:56.129Z,720.00
2019-01-09T07:46:56.113Z,736.00
2019-01-09T07:47:56.114Z,768.00
2019-01-09T07:48:56.096Z,788.00
2019-01-09T07:49:56.081Z,816.00
2019-01-09T07:50:56.252Z,848.00
2019-01-09T07:51:56.062Z,876.00
2019-01-09T07:52:56.055Z,908.00
2019-01-09T07:53:57.442Z,944.00
2019-01-09T07:54:56.029Z,988.00
2019-01-09T07:55:56.019Z,1012.00
2019-01-09T07:56:56.059Z,1076.00
2019-01-09T07:57:56.013Z,1132.00
2019-01-09T07:58:56.003Z,1176.00
2019-01-09T07:59:56.010Z,1236.00
2019-01-09T08:00:56.013Z,1300.00
2019-01-09T08:01:55.990Z,1356.00
2019-01-09T08:02:56.022Z,1416.00
2019-01-09T08:03:55.935Z,1468.00
2019-01-09T08:04:55.923Z,1520.00
2019-01-09T08:05:55.926Z,1568.00
2019-01-09T08:06:55.910Z,1620.00
2019-01-09T08:07:55.897Z,1664.00
2019-01-09T08:08:56.050Z,1696.00
2019-01-09T08:09:55.874Z,1728.00
2019-01-09T08:10:55.864Z,1760.00
2019-01-09T08:12:06.589Z,1776.00
2019-01-09T08:12:55.843Z,1808.00
2019-01-09T08:13:55.835Z,1832.00
2019-01-09T08:14:55.870Z,1856.00
2019-01-09T08:15:55.835Z,1880.00
2019-01-09T08:16:55.826Z,1916.00
2019-01-09T08:17:55.796Z,1956.00
2019-01-09T08:18:55.777Z,2000.00
2019-01-09T08:19:55.809Z,2048.00
2019-01-09T08:21:04.844Z,2096.00
2019-01-09T08:21:56.748Z,2160.00
2019-01-09T08:22:55.731Z,2216.00
2019-01-09T08:23:55.726Z,2264.00
2019-01-09T08:24:55.719Z,2312.00
2019-01-09T08:25:55.712Z,2348.00
2019-01-09T08:26:55.869Z,2380.00
2019-01-09T08:27:55.680Z,2408.00
2019-01-09T08:28:55.675Z,2440.00
2019-01-09T08:29:55.698Z,2472.00
2019-01-09T08:30:55.652Z,2520.00
2019-01-09T08:31:55.663Z,2548.00
2019-01-09T08:32:55.675Z,2580.00
2019-01-09T08:33:55.619Z,2612.00
2019-01-09T08:34:55.617Z,2612.00
2019-01-09T08:35:55.600Z,2644.00
2019-01-09T08:36:55.586Z,2676.00
2019-01-09T08:38:02.606Z,2724.00
2019-01-09T08:38:56.604Z,2760.00
2019-01-09T08:39:55.559Z,2780.00
2019-01-09T08:40:55.541Z,2796.00
2019-01-09T08:41:55.539Z,2816.00
2019-01-09T08:43:06.191Z,2832.00
2019-01-09T08:43:55.529Z,2860.00
2019-01-09T08:44:55.768Z,2884.00
2019-01-09T08:45:55.492Z,2912.00
2019-01-09T08:46:55.480Z,2924.00
2019-01-09T08:47:55.477Z,2984.00
2019-01-09T08:48:55.460Z,2980.00
2019-01-09T08:49:55.457Z,3012.00
2019-01-09T08:50:55.484Z,3048.00
2019-01-09T08:51:55.434Z,3052.00
2019-01-09T08:52:55.487Z,3048.00
2019-01-09T08:53:55.406Z,3056.00
2019-01-09T08:54:55.396Z,3060.00
2019-01-09T08:55:55.387Z,3080.00
2019-01-09T08:56:55.562Z,3064.00
2019-01-09T08:57:55.365Z,3112.00
2019-01-09T08:58:55.358Z,3124.00
2019-01-09T08:59:55.353Z,3088.00
2019-01-09T09:00:55.339Z,3148.00
2019-01-09T09:01:55.319Z,3156.00
2019-01-09T09:02:55.358Z,3184.00
2019-01-09T09:03:55.304Z,3204.00
2019-01-09T09:04:55.299Z,3224.00
2019-01-09T09:05:55.282Z,3240.00
2019-01-09T09:06:55.268Z,3240.00
2019-01-09T09:07:55.258Z,3232.00
2019-01-09T09:08:55.285Z,3216.00
2019-01-09T09:09:55.234Z,3204.00
2019-01-09T09:10:55.231Z,3264.00
2019-01-09T09:11:55.221Z,3284.00
2019-01-09T09:12:55.218Z,3312.00
2019-01-09T09:14:08.069Z,3336.00
2019-01-09T09:14:55.187Z,3356.00
2019-01-09T09:15:55.178Z,3376.00
2019-01-09T09:16:55.167Z,3392.00
2019-01-09T09:17:55.172Z,3428.00
2019-01-09T09:18:55.141Z,3468.00
2019-01-09T09:19:55.183Z,3508.00
2019-01-09T09:20:55.120Z,3556.00
2019-01-09T09:21:55.114Z,3600.00
2019-01-09T09:22:55.121Z,3636.00
2019-01-09T09:23:55.088Z,3668.00
2019-01-09T09:24:55.083Z,3708.00
2019-01-09T09:25:55.248Z,3756.00
2019-01-09T09:26:55.065Z,3808.00
2019-01-09T09:27:55.045Z,3848.00
2019-01-09T09:28:55.036Z,3864.00
2019-01-09T09:29:55.029Z,3972.00
2019-01-09T09:30:55.017Z,4072.00
2019-01-09T09:31:55.057Z,4168.00
2019-01-09T09:32:54.991Z,4268.00
2019-01-09T09:33:54.982Z,4352.00
2019-01-09T09:34:54.969Z,4400.00
2019-01-09T09:35:54.960Z,4428.00
2019-01-09T09:36:54.948Z,4440.00
2019-01-09T09:37:55.039Z,4444.00
2019-01-09T09:38:54.933Z,4468.00
2019-01-09T09:39:54.916Z,4480.00
2019-01-09T09:40:54.906Z,4548.00
2019-01-09T09:41:54.898Z,4596.00
2019-01-09T09:42:54.891Z,4664.00
2019-01-09T09:43:54.912Z,4748.00
2019-01-09T09:45:05.409Z,4840.00
2019-01-09T09:45:54.860Z,4932.00
2019-01-09T09:46:54.844Z,5020.00
2019-01-09T09:47:54.833Z,5112.00
2019-01-09T09:48:54.826Z,5208.00
2019-01-09T09:49:54.859Z,5312.00
2019-01-09T09:50:54.799Z,5424.00
2019-01-09T09:51:54.796Z,5560.00
2019-01-09T09:52:54.788Z,5724.00
2019-01-09T09:53:54.776Z,5920.00
2019-01-09T09:54:54.761Z,6120.00
2019-01-09T09:55:54.956Z,6292.00
2019-01-09T09:56:54.737Z,6408.00
2019-01-09T09:57:54.734Z,6460.00
2019-01-09T09:58:54.716Z,6460.00
2019-01-09T09:59:54.704Z,6412.00
2019-01-09T10:00:54.700Z,6400.00
2019-01-09T10:01:54.727Z,6412.00
2019-01-09T10:02:54.672Z,6332.00
2019-01-09T10:03:54.672Z,6524.00
2019-01-09T10:04:54.659Z,6632.00
2019-01-09T10:05:54.646Z,6700.00
2019-01-09T10:06:55.203Z,6908.00
2019-01-09T10:07:54.674Z,6820.00
2019-01-09T10:08:54.624Z,7228.00
2019-01-09T10:09:54.648Z,7336.00
2019-01-09T10:10:54.607Z,7468.00
2019-01-09T10:11:54.583Z,7532.00
2019-01-09T10:12:54.566Z,7564.00
2019-01-09T10:13:54.605Z,7676.00
2019-01-09T10:14:54.547Z,7752.00
2019-01-09T10:16:04.621Z,7744.00
2019-01-09T10:16:54.540Z,7696.00
2019-01-09T10:17:54.512Z,7712.00
2019-01-09T10:18:54.502Z,7708.00
2019-01-09T10:19:54.533Z,7948.00
2019-01-09T10:20:54.532Z,7536.00
2019-01-09T10:21:54.471Z,7644.00
2019-01-09T10:22:54.459Z,7760.00
2019-01-09T10:23:54.521Z,7640.00
2019-01-09T10:24:54.440Z,7632.00
2019-01-09T10:25:54.609Z,7604.00
2019-01-09T10:26:54.423Z,7476.00
2019-01-09T10:27:54.407Z,7344.00
2019-01-09T10:28:54.400Z,7388.00
2019-01-09T10:29:54.386Z,7268.00
2019-01-09T10:30:54.375Z,7104.00
2019-01-09T10:31:54.537Z,7000.00
2019-01-09T10:32:54.380Z,6824.00
2019-01-09T10:33:54.367Z,6664.00
2019-01-09T10:34:54.328Z,6512.00
2019-01-09T10:35:54.332Z,6372.00
2019-01-09T10:36:54.311Z,6240.00
2019-01-09T10:37:54.336Z,6116.00
2019-01-09T10:38:54.292Z,6008.00
2019-01-09T10:39:54.274Z,5908.00
2019-01-09T10:40:54.304Z,5800.00
2019-01-09T10:41:54.259Z,5712.00
2019-01-09T10:42:54.404Z,5608.00
2019-01-09T10:43:54.292Z,5504.00
2019-01-09T10:44:54.220Z,5420.00
2019-01-09T10:45:54.251Z,5332.00
2019-01-09T10:47:04.339Z,5240.00
2019-01-09T10:47:54.194Z,5184.00
2019-01-09T10:48:54.178Z,5172.00
2019-01-09T10:49:54.220Z,5152.00
2019-01-09T10:50:54.160Z,5132.00
2019-01-09T10:51:54.153Z,5124.00
2019-01-09T10:52:54.153Z,5120.00
2019-01-09T10:53:54.130Z,5132.00
2019-01-09T10:54:54.118Z,5104.00
2019-01-09T10:55:54.217Z,5064.00
2019-01-09T10:56:54.098Z,5004.00
2019-01-09T10:57:54.089Z,4948.00
2019-01-09T10:58:54.084Z,4896.00
2019-01-09T10:59:54.063Z,4836.00
2019-01-09T11:00:54.059Z,4760.00
2019-01-09T11:01:54.082Z,4672.00
2019-01-09T11:02:54.033Z,4580.00
2019-01-09T11:03:54.019Z,4472.00
2019-01-09T11:04:54.018Z,4364.00
2019-01-09T11:05:54.005Z,4260.00
2019-01-09T11:06:53.996Z,4144.00
2019-01-09T11:07:54.063Z,4040.00
2019-01-09T11:08:53.967Z,3936.00
2019-01-09T11:09:53.957Z,3816.00
2019-01-09T11:10:53.947Z,3780.00
2019-01-09T11:11:53.940Z,3720.00
2019-01-09T11:12:53.939Z,3672.00
2019-01-09T11:13:54.091Z,3632.00
2019-01-09T11:14:53.928Z,3552.00
2019-01-09T11:15:53.895Z,3440.00
2019-01-09T11:16:53.883Z,3340.00
2019-01-09T11:18:05.019Z,3228.00
2019-01-09T11:18:53.866Z,3188.00
2019-01-09T11:19:53.888Z,3200.00
2019-01-09T11:20:53.883Z,3208.00
2019-01-09T11:21:53.836Z,3220.00
2019-01-09T11:22:53.822Z,3188.00
2019-01-09T11:23:53.815Z,3132.00
2019-01-09T11:24:53.798Z,3084.00
2019-01-09T11:25:53.832Z,3036.00
2019-01-09T11:26:53.777Z,3020.00
2019-01-09T11:27:53.765Z,3000.00
2019-01-09T11:28:53.757Z,2952.00
2019-01-09T11:29:53.755Z,2772.00
2019-01-09T11:30:53.799Z,2744.00
2019-01-09T11:31:53.756Z,2832.00
2019-01-09T11:32:53.723Z,3020.00
2019-01-09T11:33:53.705Z,3256.00
2019-01-09T11:34:53.692Z,3468.00
2019-01-09T11:35:53.690Z,3608.00
2019-01-09T11:36:53.673Z,3716.00
2019-01-09T11:37:53.702Z,3796.00
2019-01-09T11:38:55.940Z,3860.00
2019-01-09T11:39:53.636Z,3920.00
2019-01-09T11:40:53.632Z,4004.00
2019-01-09T11:41:53.640Z,4116.00
2019-01-09T11:42:53.613Z,4232.00
2019-01-09T11:43:53.627Z,4340.00
2019-01-09T11:44:53.593Z,4440.00
2019-01-09T11:45:53.575Z,4524.00
2019-01-09T11:46:53.564Z,4604.00
2019-01-09T11:47:53.554Z,4636.00
2019-01-09T11:49:03.825Z,4660.00
2019-01-09T11:49:53.529Z,4668.00
2019-01-09T11:50:53.522Z,4680.00
2019-01-09T11:51:53.510Z,4696.00
2019-01-09T11:52:53.515Z,4688.00
2019-01-09T11:53:53.493Z,4700.00
2019-01-09T11:54:53.520Z,4712.00
2019-01-09T11:55:53.467Z,4728.00
2019-01-09T11:56:53.461Z,4740.00
2019-01-09T11:57:53.445Z,4752.00
2019-01-09T11:58:53.436Z,4760.00
2019-01-09T11:59:53.427Z,4784.00
2019-01-09T12:00:53.466Z,4740.00
2019-01-09T12:01:53.407Z,4636.00
2019-01-09T12:02:53.394Z,4552.00
2019-01-09T12:03:53.490Z,4400.00
2019-01-09T12:04:53.373Z,4244.00
2019-01-09T12:05:53.365Z,4072.00
2019-01-09T12:06:53.398Z,3904.00
2019-01-09T12:07:53.344Z,3712.00
2019-01-09T12:08:54.286Z,3568.00
2019-01-09T12:09:53.318Z,3440.00
2019-01-09T12:10:53.362Z,3320.00
2019-01-09T12:11:53.306Z,3196.00
2019-01-09T12:12:53.303Z,3076.00
2019-01-09T12:13:53.481Z,2960.00
2019-01-09T12:14:53.264Z,2848.00
2019-01-09T12:15:53.257Z,2736.00
2019-01-09T12:16:53.249Z,2628.00
2019-01-09T12:17:53.234Z,2512.00
2019-01-09T12:18:53.259Z,2392.00
2019-01-09T12:20:05.106Z,2240.00
2019-01-09T12:20:53.208Z,2060.00
2019-01-09T12:21:53.214Z,1920.00
2019-01-09T12:22:53.261Z,1836.00
2019-01-09T12:23:53.170Z,1772.00
2019-01-09T12:24:53.333Z,1724.00
2019-01-09T12:25:53.149Z,1688.00
2019-01-09T12:26:53.138Z,1644.00
2019-01-09T12:27:53.142Z,1596.00
2019-01-09T12:28:53.672Z,1552.00
2019-01-09T12:29:53.107Z,1516.00
2019-01-09T12:30:53.134Z,1480.00
2019-01-09T12:31:53.083Z,1436.00